sensor_id;sensor_type;location;lat;lon;timestamp;pressure;altitude;pressure_sealevel;temperature;humidity
72359;BME280;60317;48.880;-0.862;2023-01-15T00:01:02;99424.03;;;18.41;47.58
72359;BME280;60317;48.880;-0.862;2023-01-15T00:03:29;99424.19;;;18.40;47.62
72359;BME280;60317;48.880;-0.862;2023-01-15T00:05:56;99430.38;;;18.40;47.62
72359;BME280;60317;48.880;-0.862;2023-01-15T00:08:22;99431.22;;;18.41;47.50
72359;BME280;60317;48.880;-0.862;2023-01-15T00:10:50;99437.56;;;18.40;47.46
72359;BME280;60317;48.880;-0.862;2023-01-15T00:13:16;99438.41;;;18.40;47.38
72359;BME280;60317;48.880;-0.862;2023-01-15T00:15:42;99444.72;;;18.39;47.52
72359;BME280;60317;48.880;-0.862;2023-01-15T00:18:09;99487.38;;;18.50;46.83
72359;BME280;60317;48.880;-0.862;2023-01-15T00:20:35;99488.06;;;18.52;46.87
72359;BME280;60317;48.880;-0.862;2023-01-15T00:23:02;99491.03;;;18.49;46.76
72359;BME280;60317;48.880;-0.862;2023-01-15T00:25:28;99479.66;;;18.47;46.83
72359;BME280;60317;48.880;-0.862;2023-01-15T00:27:56;99487.50;;;18.49;46.45
72359;BME280;60317;48.880;-0.862;2023-01-15T00:30:22;99482.59;;;18.44;46.63
72359;BME280;60317;48.880;-0.862;2023-01-15T00:32:49;99488.06;;;18.43;46.61
72359;BME280;60317;48.880;-0.862;2023-01-15T00:35:16;99478.94;;;18.35;46.91
72359;BME280;60317;48.880;-0.862;2023-01-15T00:37:43;99486.00;;;18.36;46.68
72359;BME280;60317;48.880;-0.862;2023-01-15T00:40:09;99468.25;;;18.35;46.64
72359;BME280;60317;48.880;-0.862;2023-01-15T00:42:36;99459.38;;;18.35;46.76
72359;BME280;60317;48.880;-0.862;2023-01-15T00:45:04;99451.50;;;18.33;46.73
72359;BME280;60317;48.880;-0.862;2023-01-15T00:47:31;99441.81;;;18.32;46.93
72359;BME280;60317;48.880;-0.862;2023-01-15T00:49:57;99443.63;;;18.32;46.86
72359;BME280;60317;48.880;-0.862;2023-01-15T00:52:23;99434.75;;;18.31;46.92
72359;BME280;60317;48.880;-0.862;2023-01-15T00:54:50;99449.97;;;18.31;47.01
72359;BME280;60317;48.880;-0.862;2023-01-15T00:57:16;99453.47;;;18.31;46.92
72359;BME280;60317;48.880;-0.862;2023-01-15T00:59:43;99445.44;;;18.31;46.90
72359;BME280;60317;48.880;-0.862;2023-01-15T01:02:10;99452.63;;;18.31;46.73
72359;BME280;60317;48.880;-0.862;2023-01-15T01:04:37;99447.44;;;18.29;47.16
72359;BME280;60317;48.880;-0.862;2023-01-15T01:07:03;99460.81;;;18.29;46.89
72359;BME280;60317;48.880;-0.862;2023-01-15T01:09:30;99462.66;;;18.29;46.71
72359;BME280;60317;48.880;-0.862;2023-01-15T01:11:56;99463.34;;;18.31;46.74
72359;BME280;60317;48.880;-0.862;2023-01-15T01:14:22;99472.34;;;18.30;46.79
72359;BME280;60317;48.880;-0.862;2023-01-15T01:16:49;99468.13;;;18.27;46.81
72359;BME280;60317;48.880;-0.862;2023-01-15T01:19:17;99478.69;;;18.29;46.87
72359;BME280;60317;48.880;-0.862;2023-01-15T01:21:44;99491.06;;;18.30;46.65
72359;BME280;60317;48.880;-0.862;2023-01-15T01:24:12;99501.91;;;18.28;46.56
72359;BME280;60317;48.880;-0.862;2023-01-15T01:26:39;99518.81;;;18.29;46.55
72359;BME280;60317;48.880;-0.862;2023-01-15T01:29:06;99531.88;;;18.32;46.40
72359;BME280;60317;48.880;-0.862;2023-01-15T01:31:32;99507.53;;;18.35;46.33
72359;BME280;60317;48.880;-0.862;2023-01-15T01:33:59;99491.75;;;18.32;46.36
72359;BME280;60317;48.880;-0.862;2023-01-15T01:36:27;99476.72;;;18.31;46.45
72359;BME280;60317;48.880;-0.862;2023-01-15T01:38:54;99483.50;;;18.25;46.65
72359;BME280;60317;48.880;-0.862;2023-01-15T01:41:20;99497.56;;;18.27;46.20
72359;BME280;60317;48.880;-0.862;2023-01-15T01:43:51;99503.06;;;18.26;46.36
72359;BME280;60317;48.880;-0.862;2023-01-15T01:46:18;99508.53;;;18.24;46.33
72359;BME280;60317;48.880;-0.862;2023-01-15T01:48:44;99521.06;;;18.24;46.38
72359;BME280;60317;48.880;-0.862;2023-01-15T01:51:11;99525.56;;;18.23;46.37
72359;BME280;60317;48.880;-0.862;2023-01-15T01:53:39;99519.38;;;18.23;46.29
72359;BME280;60317;48.880;-0.862;2023-01-15T01:56:06;99517.69;;;18.22;46.25
72359;BME280;60317;48.880;-0.862;2023-01-15T01:58:33;99524.72;;;18.23;46.29
72359;BME280;60317;48.880;-0.862;2023-01-15T02:01:00;99515.03;;;18.22;46.32
72359;BME280;60317;48.880;-0.862;2023-01-15T02:03:29;99510.66;;;18.21;46.42
72359;BME280;60317;48.880;-0.862;2023-01-15T02:05:57;99525.00;;;18.20;46.34
72359;BME280;60317;48.880;-0.862;2023-01-15T02:08:24;99519.50;;;18.21;46.35
72359;BME280;60317;48.880;-0.862;2023-01-15T02:10:53;99520.50;;;18.20;46.42
72359;BME280;60317;48.880;-0.862;2023-01-15T02:13:20;99517.69;;;18.22;46.29
72359;BME280;60317;48.880;-0.862;2023-01-15T02:15:51;99518.66;;;18.21;46.42
72359;BME280;60317;48.880;-0.862;2023-01-15T02:18:21;99511.63;;;18.20;46.24
72359;BME280;60317;48.880;-0.862;2023-01-15T02:20:49;99521.34;;;18.21;46.33
72359;BME280;60317;48.880;-0.862;2023-01-15T02:26:00;99518.81;;;18.19;46.14
72359;BME280;60317;48.880;-0.862;2023-01-15T02:28:29;99519.66;;;18.20;46.26
72359;BME280;60317;48.880;-0.862;2023-01-15T02:31:00;99519.50;;;18.21;46.23
72359;BME280;60317;48.880;-0.862;2023-01-15T02:33:30;99534.03;;;18.19;46.24
72359;BME280;60317;48.880;-0.862;2023-01-15T02:35:59;99536.44;;;18.22;46.23
72359;BME280;60317;48.880;-0.862;2023-01-15T02:38:26;99525.00;;;18.20;46.15
72359;BME280;60317;48.880;-0.862;2023-01-15T02:40:55;99528.69;;;18.19;46.13
72359;BME280;60317;48.880;-0.862;2023-01-15T02:43:23;99534.03;;;18.19;46.03
72359;BME280;60317;48.880;-0.862;2023-01-15T02:45:54;99561.75;;;18.18;46.23
72359;BME280;60317;48.880;-0.862;2023-01-15T02:48:24;99572.44;;;18.18;46.03
72359;BME280;60317;48.880;-0.862;2023-01-15T02:50:53;99566.53;;;18.24;45.78
72359;BME280;60317;48.880;-0.862;2023-01-15T02:53:21;99551.75;;;18.20;45.92
72359;BME280;60317;48.880;-0.862;2023-01-15T02:55:48;99549.91;;;18.20;45.94
72359;BME280;60317;48.880;-0.862;2023-01-15T02:58:16;99547.25;;;18.20;45.87
72359;BME280;60317;48.880;-0.862;2023-01-15T03:00:46;99547.53;;;18.17;45.91
72359;BME280;60317;48.880;-0.862;2023-01-15T03:03:17;99550.34;;;18.16;45.81
72359;BME280;60317;48.880;-0.862;2023-01-15T03:05:47;99566.41;;;18.16;45.85
72359;BME280;60317;48.880;-0.862;2023-01-15T03:08:18;99536.13;;;18.15;46.05
72359;BME280;60317;48.880;-0.862;2023-01-15T03:10:45;99538.38;;;18.20;45.70
72359;BME280;60317;48.880;-0.862;2023-01-15T03:13:14;99571.19;;;18.22;45.64
72359;BME280;60317;48.880;-0.862;2023-01-15T03:15:44;99566.69;;;18.22;45.49
72359;BME280;60317;48.880;-0.862;2023-01-15T03:18:13;99545.84;;;18.16;45.67
72359;BME280;60317;48.880;-0.862;2023-01-15T03:20:42;99546.84;;;18.15;45.74
72359;BME280;60317;48.880;-0.862;2023-01-15T03:23:13;99559.34;;;18.15;45.81
72359;BME280;60317;48.880;-0.862;2023-01-15T03:25:41;99541.59;;;18.13;45.67
72359;BME280;60317;48.880;-0.862;2023-01-15T03:28:10;99583.56;;;18.13;45.74
72359;BME280;60317;48.880;-0.862;2023-01-15T03:30:37;99597.66;;;18.15;45.68
72359;BME280;60317;48.880;-0.862;2023-01-15T03:33:03;99603.13;;;18.13;45.46
72359;BME280;60317;48.880;-0.862;2023-01-15T03:35:39;99593.41;;;18.12;45.63
72359;BME280;60317;48.880;-0.862;2023-01-15T03:38:09;99584.56;;;18.12;45.81
72359;BME280;60317;48.880;-0.862;2023-01-15T03:40:36;99598.88;;;18.11;45.67
72359;BME280;60317;48.880;-0.862;2023-01-15T03:43:05;99609.59;;;18.11;45.82
72359;BME280;60317;48.880;-0.862;2023-01-15T03:45:34;99597.09;;;18.11;45.68
72359;BME280;60317;48.880;-0.862;2023-01-15T03:48:04;99610.47;;;18.11;45.74
72359;BME280;60317;48.880;-0.862;2023-01-15T03:50:37;99613.25;;;18.10;45.82
72359;BME280;60317;48.880;-0.862;2023-01-15T03:53:10;99604.38;;;18.09;45.71
72359;BME280;60317;48.880;-0.862;2023-01-15T03:55:41;99590.19;;;18.09;45.81
72359;BME280;60317;48.880;-0.862;2023-01-15T03:58:11;99594.69;;;18.08;45.71
72359;BME280;60317;48.880;-0.862;2023-01-15T04:00:40;99584.81;;;18.09;45.70
72359;BME280;60317;48.880;-0.862;2023-01-15T04:03:07;99588.34;;;18.09;45.70
72359;BME280;60317;48.880;-0.862;2023-01-15T04:05:35;99581.31;;;18.08;45.76
72359;BME280;60317;48.880;-0.862;2023-01-15T04:08:02;99575.97;;;18.08;45.67
72359;BME280;60317;48.880;-0.862;2023-01-15T04:10:31;99594.69;;;18.08;45.82
72359;BME280;60317;48.880;-0.862;2023-01-15T04:12:57;99615.22;;;18.08;45.56
72359;BME280;60317;48.880;-0.862;2023-01-15T04:15:24;99601.00;;;18.07;45.63
72359;BME280;60317;48.880;-0.862;2023-01-15T04:17:50;99616.19;;;18.07;45.58
72359;BME280;60317;48.880;-0.862;2023-01-15T04:20:16;99600.16;;;18.07;45.75
72359;BME280;60317;48.880;-0.862;2023-01-15T04:22:43;99593.97;;;18.06;45.70
72359;BME280;60317;48.880;-0.862;2023-01-15T04:25:09;99605.50;;;18.07;45.52
72359;BME280;60317;48.880;-0.862;2023-01-15T04:27:37;99599.31;;;18.06;45.57
72359;BME280;60317;48.880;-0.862;2023-01-15T04:30:04;99583.28;;;18.06;45.77
72359;BME280;60317;48.880;-0.862;2023-01-15T04:32:30;99600.16;;;18.07;45.67
72359;BME280;60317;48.880;-0.862;2023-01-15T04:34:57;99578.75;;;18.07;45.57
72359;BME280;60317;48.880;-0.862;2023-01-15T04:37:23;99582.44;;;18.06;45.67
72359;BME280;60317;48.880;-0.862;2023-01-15T04:39:49;99577.09;;;18.06;45.66
72359;BME280;60317;48.880;-0.862;2023-01-15T04:42:16;99582.44;;;18.06;45.45
72359;BME280;60317;48.880;-0.862;2023-01-15T04:44:43;99580.75;;;18.05;45.60
72359;BME280;60317;48.880;-0.862;2023-01-15T04:47:10;99580.75;;;18.05;45.57
72359;BME280;60317;48.880;-0.862;2023-01-15T04:49:36;99581.59;;;18.05;45.56
72359;BME280;60317;48.880;-0.862;2023-01-15T04:52:03;99587.94;;;18.04;45.47
72359;BME280;60317;48.880;-0.862;2023-01-15T04:54:29;99584.38;;;18.04;45.44
72359;BME280;60317;48.880;-0.862;2023-01-15T04:56:56;99581.72;;;18.04;45.40
72359;BME280;60317;48.880;-0.862;2023-01-15T04:59:23;99579.03;;;18.04;45.38
72359;BME280;60317;48.880;-0.862;2023-01-15T05:01:51;99580.88;;;18.03;45.38
72359;BME280;60317;48.880;-0.862;2023-01-15T05:04:29;99589.72;;;18.04;45.30
72359;BME280;60317;48.880;-0.862;2023-01-15T05:06:55;99579.19;;;18.02;45.25
72359;BME280;60317;48.880;-0.862;2023-01-15T05:09:22;99585.38;;;18.03;45.19
72359;BME280;60317;48.880;-0.862;2023-01-15T05:11:48;99594.25;;;18.03;45.30
72359;BME280;60317;48.880;-0.862;2023-01-15T05:14:15;99585.53;;;18.01;45.29
72359;BME280;60317;48.880;-0.862;2023-01-15T05:16:41;99586.38;;;18.02;45.24
72359;BME280;60317;48.880;-0.862;2023-01-15T05:19:09;99601.56;;;18.01;45.21
72359;BME280;60317;48.880;-0.862;2023-01-15T05:21:38;99593.56;;;18.01;45.33
72359;BME280;60317;48.880;-0.862;2023-01-15T05:24:05;99590.03;;;18.01;45.10
72359;BME280;60317;48.880;-0.862;2023-01-15T05:26:32;99590.16;;;17.99;45.05
72359;BME280;60317;48.880;-0.862;2023-01-15T05:28:59;99590.16;;;17.99;45.09
72359;BME280;60317;48.880;-0.862;2023-01-15T05:31:26;99594.50;;;18.00;45.01
72359;BME280;60317;48.880;-0.862;2023-01-15T05:33:53;99600.84;;;17.99;45.08
72359;BME280;60317;48.880;-0.862;2023-01-15T05:36:21;99601.84;;;17.98;45.04
72359;BME280;60317;48.880;-0.862;2023-01-15T05:38:48;99607.19;;;17.98;44.99
72359;BME280;60317;48.880;-0.862;2023-01-15T05:41:15;99617.03;;;17.98;44.86
72359;BME280;60317;48.880;-0.862;2023-01-15T05:43:41;99621.41;;;17.99;44.93
72359;BME280;60317;48.880;-0.862;2023-01-15T05:46:08;99616.06;;;17.99;44.92
72359;BME280;60317;48.880;-0.862;2023-01-15T05:48:34;99611.69;;;17.98;44.81
72359;BME280;60317;48.880;-0.862;2023-01-15T05:51:00;99609.16;;;17.96;44.96
72359;BME280;60317;48.880;-0.862;2023-01-15T05:53:28;99611.81;;;17.96;44.54
72359;BME280;60317;48.880;-0.862;2023-01-15T05:55:54;99623.34;;;17.97;44.82
72359;BME280;60317;48.880;-0.862;2023-01-15T05:58:21;99619.84;;;17.96;44.61
72359;BME280;60317;48.880;-0.862;2023-01-15T06:00:47;99611.81;;;17.96;44.75
72359;BME280;60317;48.880;-0.862;2023-01-15T06:03:14;99614.50;;;17.96;44.57
72359;BME280;60317;48.880;-0.862;2023-01-15T06:05:40;99609.28;;;17.95;44.48
72359;BME280;60317;48.880;-0.862;2023-01-15T06:08:06;99615.47;;;17.95;44.41
72359;BME280;60317;48.880;-0.862;2023-01-15T06:10:34;99626.34;;;17.94;44.47
72359;BME280;60317;48.880;-0.862;2023-01-15T06:13:01;99617.31;;;17.95;44.30
72359;BME280;60317;48.880;-0.862;2023-01-15T06:15:27;99621.56;;;17.97;44.48
72359;BME280;60317;48.880;-0.862;2023-01-15T06:17:53;99642.22;;;17.95;44.53
72359;BME280;60317;48.880;-0.862;2023-01-15T06:20:20;99640.66;;;17.93;44.43
72359;BME280;60317;48.880;-0.862;2023-01-15T06:22:47;99651.34;;;17.93;44.48
72359;BME280;60317;48.880;-0.862;2023-01-15T06:25:14;99658.41;;;17.94;44.45
72359;BME280;60317;48.880;-0.862;2023-01-15T06:27:41;99656.44;;;17.96;44.40
72359;BME280;60317;48.880;-0.862;2023-01-15T06:30:08;99651.22;;;17.94;44.36
72359;BME280;60317;48.880;-0.862;2023-01-15T06:32:34;99647.56;;;17.95;44.32
72359;BME280;60317;48.880;-0.862;2023-01-15T06:35:01;99622.78;;;17.93;44.26
72359;BME280;60317;48.880;-0.862;2023-01-15T06:37:27;99625.47;;;17.93;44.32
72359;BME280;60317;48.880;-0.862;2023-01-15T06:39:54;99626.44;;;17.92;44.30
72359;BME280;60317;48.880;-0.862;2023-01-15T06:42:20;99624.63;;;17.93;44.17
72359;BME280;60317;48.880;-0.862;2023-01-15T06:44:48;99631.78;;;17.92;44.35
72359;BME280;60317;48.880;-0.862;2023-01-15T06:47:15;99620.41;;;17.90;44.34
72359;BME280;60317;48.880;-0.862;2023-01-15T06:49:42;99625.75;;;17.90;44.34
72359;BME280;60317;48.880;-0.862;2023-01-15T06:52:08;99612.41;;;17.90;44.14
72359;BME280;60317;48.880;-0.862;2023-01-15T06:54:35;99627.56;;;17.89;44.05
72359;BME280;60317;48.880;-0.862;2023-01-15T06:57:01;99634.75;;;17.89;44.12
72359;BME280;60317;48.880;-0.862;2023-01-15T06:59:27;99658.09;;;17.87;44.27
72359;BME280;60317;48.880;-0.862;2023-01-15T07:01:55;99662.47;;;17.88;44.32
72359;BME280;60317;48.880;-0.862;2023-01-15T07:04:22;99649.09;;;17.88;44.19
72359;BME280;60317;48.880;-0.862;2023-01-15T07:06:48;99641.06;;;17.88;44.11
72359;BME280;60317;48.880;-0.862;2023-01-15T07:09:14;99635.84;;;17.86;44.10
72359;BME280;60317;48.880;-0.862;2023-01-15T07:11:41;99621.53;;;17.87;44.09
72359;BME280;60317;48.880;-0.862;2023-01-15T07:14:07;99617.00;;;17.88;43.95
72359;BME280;60317;48.880;-0.862;2023-01-15T07:16:34;99612.66;;;17.87;44.23
72359;BME280;60317;48.880;-0.862;2023-01-15T07:19:02;99616.28;;;17.86;44.16
72359;BME280;60317;48.880;-0.862;2023-01-15T07:21:29;99610.00;;;17.87;44.12
72359;BME280;60317;48.880;-0.862;2023-01-15T07:23:57;99625.16;;;17.86;43.98
72359;BME280;60317;48.880;-0.862;2023-01-15T07:26:24;99611.78;;;17.86;43.93
72359;BME280;60317;48.880;-0.862;2023-01-15T07:28:50;99595.91;;;17.85;43.77
72359;BME280;60317;48.880;-0.862;2023-01-15T07:31:16;99600.41;;;17.84;43.90
72359;BME280;60317;48.880;-0.862;2023-01-15T07:33:43;99588.72;;;17.85;43.70
72359;BME280;60317;48.880;-0.862;2023-01-15T07:36:10;99602.25;;;17.84;43.80
72359;BME280;60317;48.880;-0.862;2023-01-15T07:38:37;99589.72;;;17.84;43.87
72359;BME280;60317;48.880;-0.862;2023-01-15T07:41:03;99594.22;;;17.84;43.80
72359;BME280;60317;48.880;-0.862;2023-01-15T07:43:30;99603.19;;;17.83;43.76
72359;BME280;60317;48.880;-0.862;2023-01-15T07:45:56;99604.91;;;17.84;43.81
72359;BME280;60317;48.880;-0.862;2023-01-15T07:48:22;99604.91;;;17.84;43.98
72359;BME280;60317;48.880;-0.862;2023-01-15T07:50:50;99602.34;;;17.82;43.87
72359;BME280;60317;48.880;-0.862;2023-01-15T07:53:18;99605.03;;;17.82;43.57
72359;BME280;60317;48.880;-0.862;2023-01-15T07:55:44;99594.22;;;17.84;43.77
72359;BME280;60317;48.880;-0.862;2023-01-15T07:58:11;99590.72;;;17.83;43.79
72359;BME280;60317;48.880;-0.862;2023-01-15T08:00:37;99578.31;;;17.82;43.80
72359;BME280;60317;48.880;-0.862;2023-01-15T08:03:06;99572.13;;;17.82;43.88
72359;BME280;60317;48.880;-0.862;2023-01-15T08:05:32;99582.81;;;17.82;43.70
72359;BME280;60317;48.880;-0.862;2023-01-15T08:07:59;99593.50;;;17.82;43.66
72359;BME280;60317;48.880;-0.862;2023-01-15T08:10:26;99597.00;;;17.82;43.73
72359;BME280;60317;48.880;-0.862;2023-01-15T08:12:53;99597.16;;;17.81;43.66
72359;BME280;60317;48.880;-0.862;2023-01-15T08:15:22;99605.19;;;17.81;43.74
72359;BME280;60317;48.880;-0.862;2023-01-15T08:17:49;99608.53;;;17.83;43.50
72359;BME280;60317;48.880;-0.862;2023-01-15T08:20:17;99605.88;;;17.83;43.74
72359;BME280;60317;48.880;-0.862;2023-01-15T08:22:44;99598.84;;;17.82;43.72
72359;BME280;60317;48.880;-0.862;2023-01-15T08:25:11;99601.53;;;17.82;43.67
72359;BME280;60317;48.880;-0.862;2023-01-15T08:27:40;99613.19;;;17.81;43.61
72359;BME280;60317;48.880;-0.862;2023-01-15T08:30:09;99613.19;;;17.81;43.75
72359;BME280;60317;48.880;-0.862;2023-01-15T08:32:35;99598.16;;;17.80;43.59
72359;BME280;60317;48.880;-0.862;2023-01-15T08:35:02;99606.19;;;17.80;43.51
72359;BME280;60317;48.880;-0.862;2023-01-15T08:37:28;99614.19;;;17.80;43.56
72359;BME280;60317;48.880;-0.862;2023-01-15T08:39:55;99623.16;;;17.79;43.67
72359;BME280;60317;48.880;-0.862;2023-01-15T08:42:21;99613.31;;;17.79;43.61
72359;BME280;60317;48.880;-0.862;2023-01-15T08:44:49;99617.81;;;17.79;43.59
72359;BME280;60317;48.880;-0.862;2023-01-15T08:47:15;99604.47;;;17.79;43.60
72359;BME280;60317;48.880;-0.862;2023-01-15T08:49:42;99604.34;;;17.80;43.73
72359;BME280;60317;48.880;-0.862;2023-01-15T08:52:08;99602.63;;;17.79;43.70
72359;BME280;60317;48.880;-0.862;2023-01-15T08:54:35;99596.44;;;17.79;43.53
72359;BME280;60317;48.880;-0.862;2023-01-15T08:57:01;99600.94;;;17.78;43.71
72359;BME280;60317;48.880;-0.862;2023-01-15T08:59:28;99597.28;;;17.79;43.60
72359;BME280;60317;48.880;-0.862;2023-01-15T09:01:56;99607.13;;;17.79;43.62
72359;BME280;60317;48.880;-0.862;2023-01-15T09:04:22;99601.78;;;17.79;43.54
72359;BME280;60317;48.880;-0.862;2023-01-15T09:06:49;99587.59;;;17.78;43.90
72359;BME280;60317;48.880;-0.862;2023-01-15T09:09:15;99588.31;;;17.80;43.71
72359;BME280;60317;48.880;-0.862;2023-01-15T09:11:41;99594.75;;;17.78;43.55
72359;BME280;60317;48.880;-0.862;2023-01-15T09:14:08;99604.34;;;17.80;43.66
72359;BME280;60317;48.880;-0.862;2023-01-15T09:16:56;99602.78;;;17.78;43.58
72359;BME280;60317;48.880;-0.862;2023-01-15T09:19:23;99590.13;;;17.80;43.50
72359;BME280;60317;48.880;-0.862;2023-01-15T09:21:49;99596.44;;;17.79;43.55
72359;BME280;60317;48.880;-0.862;2023-01-15T09:24:15;99601.09;;;17.77;43.49
72359;BME280;60317;48.880;-0.862;2023-01-15T09:26:42;99592.25;;;17.76;43.48
72359;BME280;60317;48.880;-0.862;2023-01-15T09:29:08;99586.59;;;17.79;43.60
72359;BME280;60317;48.880;-0.862;2023-01-15T09:31:35;99580.41;;;17.79;43.44
72359;BME280;60317;48.880;-0.862;2023-01-15T09:34:02;99594.59;;;17.79;43.38
72359;BME280;60317;48.880;-0.862;2023-01-15T09:36:30;99596.31;;;17.80;43.33
72359;BME280;60317;48.880;-0.862;2023-01-15T09:38:56;99604.63;;;17.77;43.42
72359;BME280;60317;48.880;-0.862;2023-01-15T09:41:24;99597.28;;;17.79;43.47
72359;BME280;60317;48.880;-0.862;2023-01-15T09:43:51;99601.09;;;17.77;43.48
72359;BME280;60317;48.880;-0.862;2023-01-15T09:46:22;99595.84;;;17.75;43.51
72359;BME280;60317;48.880;-0.862;2023-01-15T09:48:52;99598.50;;;17.75;43.42
72359;BME280;60317;48.880;-0.862;2023-01-15T09:51:26;99599.50;;;17.74;43.43
72359;BME280;60317;48.880;-0.862;2023-01-15T09:53:58;99624.16;;;17.78;43.34
72359;BME280;60317;48.880;-0.862;2023-01-15T09:56:28;99635.84;;;17.77;43.36
72359;BME280;60317;48.880;-0.862;2023-01-15T09:58:56;99635.00;;;17.76;43.37
72359;BME280;60317;48.880;-0.862;2023-01-15T10:01:25;99635.84;;;17.77;43.54
72359;BME280;60317;48.880;-0.862;2023-01-15T10:03:53;99624.16;;;17.78;43.26
72359;BME280;60317;48.880;-0.862;2023-01-15T10:06:23;99626.97;;;17.76;43.42
72359;BME280;60317;48.880;-0.862;2023-01-15T10:08:53;99618.97;;;17.76;43.53
72359;BME280;60317;48.880;-0.862;2023-01-15T10:11:27;99614.47;;;17.77;43.43
72359;BME280;60317;48.880;-0.862;2023-01-15T10:13:55;99643.72;;;17.78;43.33
72359;BME280;60317;48.880;-0.862;2023-01-15T10:16:25;99640.78;;;17.81;43.47
72359;BME280;60317;48.880;-0.862;2023-01-15T10:18:52;99642.72;;;17.79;43.41
72359;BME280;60317;48.880;-0.862;2023-01-15T10:21:23;99647.09;;;17.80;43.21
72359;BME280;60317;48.880;-0.862;2023-01-15T10:23:57;99636.28;;;17.82;43.19
72359;BME280;60317;48.880;-0.862;2023-01-15T10:26:29;99632.03;;;17.79;43.34
72359;BME280;60317;48.880;-0.862;2023-01-15T10:28:57;99649.06;;;17.78;43.34
72359;BME280;60317;48.880;-0.862;2023-01-15T10:31:26;99652.72;;;17.77;43.47
72359;BME280;60317;48.880;-0.862;2023-01-15T10:34:04;99644.69;;;17.77;43.35
72359;BME280;60317;48.880;-0.862;2023-01-15T10:36:40;99653.72;;;17.76;43.61
72359;BME280;60317;48.880;-0.862;2023-01-15T10:39:11;99660.47;;;17.80;43.34
72359;BME280;60317;48.880;-0.862;2023-01-15T10:44:16;99655.13;;;17.80;43.24
72359;BME280;60317;48.880;-0.862;2023-01-15T10:46:48;99652.72;;;17.77;43.47
72359;BME280;60317;48.880;-0.862;2023-01-15T10:49:17;99643.88;;;17.77;43.47
72359;BME280;60317;48.880;-0.862;2023-01-15T10:51:44;99639.47;;;17.76;43.47
72359;BME280;60317;48.880;-0.862;2023-01-15T10:54:15;99638.53;;;17.77;43.55
72359;BME280;60317;48.880;-0.862;2023-01-15T10:56:44;99642.16;;;17.76;43.37
72359;BME280;60317;48.880;-0.862;2023-01-15T10:59:13;99645.69;;;17.76;43.42
72359;BME280;60317;48.880;-0.862;2023-01-15T11:01:41;99644.69;;;17.77;43.29
72359;BME280;60317;48.880;-0.862;2023-01-15T11:04:08;99627.56;;;17.80;43.34
72359;BME280;60317;48.880;-0.862;2023-01-15T11:06:35;99637.53;;;17.78;43.35
72359;BME280;60317;48.880;-0.862;2023-01-15T11:09:01;99648.22;;;17.78;43.46
72359;BME280;60317;48.880;-0.862;2023-01-15T11:11:39;99642.03;;;17.77;43.45
72359;BME280;60317;48.880;-0.862;2023-01-15T11:14:05;99633.16;;;17.77;43.50
72359;BME280;60317;48.880;-0.862;2023-01-15T11:16:32;99650.16;;;17.76;43.46
72359;BME280;60317;48.880;-0.862;2023-01-15T11:19:00;99636.53;;;17.79;43.22
72359;BME280;60317;48.880;-0.862;2023-01-15T11:21:26;99624.16;;;17.78;43.42
72359;BME280;60317;48.880;-0.862;2023-01-15T11:23:53;99625.25;;;17.75;43.43
72359;BME280;60317;48.880;-0.862;2023-01-15T11:26:21;99619.06;;;17.75;43.44
72359;BME280;60317;48.880;-0.862;2023-01-15T11:28:49;99610.19;;;17.74;43.41
72359;BME280;60317;48.880;-0.862;2023-01-15T11:31:16;99608.38;;;17.75;43.49
72359;BME280;60317;48.880;-0.862;2023-01-15T11:33:43;99619.53;;;17.80;43.52
72359;BME280;60317;48.880;-0.862;2023-01-15T11:36:19;99611.78;;;17.77;43.26
72359;BME280;60317;48.880;-0.862;2023-01-15T11:38:47;99598.50;;;17.75;43.30
72359;BME280;60317;48.880;-0.862;2023-01-15T11:41:15;99611.03;;;17.75;43.44
72359;BME280;60317;48.880;-0.862;2023-01-15T11:43:52;99610.19;;;17.74;43.25
72359;BME280;60317;48.880;-0.862;2023-01-15T11:46:25;99603.84;;;17.75;43.36
72359;BME280;60317;48.880;-0.862;2023-01-15T11:48:51;99606.44;;;17.77;43.39
72359;BME280;60317;48.880;-0.862;2023-01-15T11:51:18;99588.56;;;17.77;43.27
72359;BME280;60317;48.880;-0.862;2023-01-15T11:53:47;99581.63;;;17.75;43.46
72359;BME280;60317;48.880;-0.862;2023-01-15T11:56:15;99586.03;;;17.76;43.43
72359;BME280;60317;48.880;-0.862;2023-01-15T11:58:43;99584.78;;;17.80;43.28
72359;BME280;60317;48.880;-0.862;2023-01-15T12:01:11;99589.41;;;17.78;43.38
72359;BME280;60317;48.880;-0.862;2023-01-15T12:03:39;99575.34;;;17.76;43.29
72359;BME280;60317;48.880;-0.862;2023-01-15T12:06:06;99568.28;;;17.75;43.37
72359;BME280;60317;48.880;-0.862;2023-01-15T12:08:38;99575.34;;;17.76;43.27
72359;BME280;60317;48.880;-0.862;2023-01-15T12:11:10;99576.19;;;17.76;43.46
72359;BME280;60317;48.880;-0.862;2023-01-15T12:13:53;99573.63;;;17.75;43.24
72359;BME280;60317;48.880;-0.862;2023-01-15T12:16:23;99570.72;;;17.78;43.46
72359;BME280;60317;48.880;-0.862;2023-01-15T12:18:57;99563.69;;;17.77;43.30
72359;BME280;60317;48.880;-0.862;2023-01-15T12:21:30;99560.00;;;17.78;43.35
72359;BME280;60317;48.880;-0.862;2023-01-15T12:24:02;99553.00;;;17.77;43.35
72359;BME280;60317;48.880;-0.862;2023-01-15T12:26:35;99524.56;;;17.76;43.29
72359;BME280;60317;48.880;-0.862;2023-01-15T12:29:04;99533.44;;;17.76;43.40
72359;BME280;60317;48.880;-0.862;2023-01-15T12:31:32;99525.28;;;17.78;43.34
72359;BME280;60317;48.880;-0.862;2023-01-15T12:34:05;99507.56;;;17.77;43.08
72359;BME280;60317;48.880;-0.862;2023-01-15T12:36:36;99505.84;;;17.76;43.27
72359;BME280;60317;48.880;-0.862;2023-01-15T12:39:06;99504.03;;;17.76;43.34
72359;BME280;60317;48.880;-0.862;2023-01-15T12:41:39;99488.94;;;17.75;43.21
72359;BME280;60317;48.880;-0.862;2023-01-15T12:44:07;99495.16;;;17.76;43.12
72359;BME280;60317;48.880;-0.862;2023-01-15T12:46:34;99490.25;;;17.81;43.29
72359;BME280;60317;48.880;-0.862;2023-01-15T12:49:08;99495.88;;;17.78;43.11
72359;BME280;60317;48.880;-0.862;2023-01-15T12:51:40;99493.19;;;17.78;43.35
72359;BME280;60317;48.880;-0.862;2023-01-15T12:54:12;99478.00;;;17.78;43.35
72359;BME280;60317;48.880;-0.862;2023-01-15T12:56:43;99482.50;;;17.78;43.15
72359;BME280;60317;48.880;-0.862;2023-01-15T12:59:13;99488.69;;;17.78;43.35